ADDS METAR Data INFO
IDs: Format: Raw Decoded Include TAF

Data at: 1756 UTC 15 Dec 2017

KTIX 151747Z 22012KT 7SM BKN051 24/13 A3006
KTIX 151650Z 22012KT 7SM SCT035 25/12 A3008
KTIX 151556Z 21012KT 7SM FEW065 23/10 A3010
KTIX 151447Z 21010KT 7SM FEW065 21/09 A3011
KTIX 151347Z 21010KT 7SM BKN049 OVC065 18/11 A3010
KTIX 151247Z 21010KT 7SM BKN048 OVC065 16/12 A3009
KTIX 151147Z 21010KT 7SM BKN046 OVC065 16/12 A3006 RMK FIRST
KTIX 150147Z 21007KT 7SM BKN055 18/12 A3007 RMK LAST
KTIX 150050Z 19008KT 7SM BKN055 17/13 A3006
KTIX 142355Z 19004KT 7SM SCT055 17/12 A3004
KTIX 142250Z 19005KT 7SM SCT065 19/12 A3003
KTIX 142150Z 24008KT 7SM SCT065 22/11 A3001
KTIX 142050Z 29007KT 7SM SCT055 23/11 A3001
KTIX 141950Z 23010KT 7SM SCT045 22/112 A3000
KTIX 141848Z 28010KT 7SM SCT030 23/11 A3000
KTIX 141747Z 27005KT 7SM SCT030 22/11 A3002
KTIX 141647Z 19010KT 7SM SKC 22/12 A3006
KTIX 141547Z 19010KT 7SM SKC 21/11 A3007
KTIX 141447Z 20005KT 7SM SKC 18/11 A3007
KTIX 141350Z 21010KT 7SM SKC 13/10 A3006
KTIX 141147Z 00000KT 7SM SKC 06/04 A3006
KTIX 140148Z 26007KT 7SM SKC 06/04 A3007 RMK LAST
KTIX 140047Z 24004KT 7SM SKC 06/03 A3007
KTIX 132355Z 30006KT 7SM SKC 08/03 A3007
KTIX 132252Z 27004KT 7SM SKC 14/M01 A3005
KTIX 132147Z 28008KT 7SM SKC 17/M03 A3005
KTIX 132047Z 31007KT 7SM SKC 18/M03 A3003
KTIX 131947Z 31008KT 7SM SKC 18/M02 A3004
KTIX 131847Z 31010KT 7SM SKC 18/M02 A3005
KTIX 131747Z 30012KT 7SM SKC 17/M04 A3006
KTIX 131650Z 30011KT 7SM SKC 16/M02 A3010
KTIX 131550Z 33010KT 7SM SKC 14/M02 A3012
KTIX 131447Z 33010KT 7SM SKC 12/M01 A3013
KTIX 131347Z 32010KT 7SM SKC 10/02 A3012
KTIX 131247Z 32005KT 7SM SKC 07/03 A3011
KTIX 131147Z 32005KT 7SM SKC 07/02 A3008
KTIX 130147Z 28014KT 7SM SKC 17/04 A2995 RMK LAST
KTIX 130050Z 29016KT 7SM SCT041 18/10 A2993
KTIX 122347Z 25012KT 7SM SKC 19/09 A2990
KTIX 122250Z 27011KT 7SM SKC 21/08 A2988
KTIX 122155Z 27012KT 7SM SKC 22/06 A2988
KTIX 122050Z 27020KT 7SM FEW035 22/06 A2987
KTIX 121947Z 27015KT 7SM SCT065 23/10 A2987
KTIX 121855Z 27024KT 7SM SCT050 22/09 A2990
KTIX 121747Z 25017G17KT 7SM SCT040 23/11 A2994
KTIX 121647Z 25017G17KT 7SM SCT036 22/11 A2998
KTIX 121547Z 18010KT 7SM SKC 19/12 A3002
KTIX 121447Z 18010KT 7SM SKC 16/10 A3006
KTIX 121347Z 18010KT 7SM SKC 12/07 A3007
KTIX 121247Z 18010KT 7SM SKC 08/08 A3010
KTIX 121147Z 18010KT 7SM SKC 08/07 A3010 RMK FIRST
KTIX 120147Z 00000KT 7SM SKC 06/04 A3018 RMK LAST
KTIX 120047Z 27005KT 7SM SKC 06/04 A3018
KTIX 112347Z 00000KT 7SM SKC 09/06 A3018
KTIX 112247Z 00000KT 7SM SKC 15/03 A3016
KTIX 112147Z 00000KT 7SM SKC 17/M02 A3016
KTIX 112047Z VRB04KT 7SM SKC 18/M03 A3017
KTIX 111947Z VRB04KT 7SM SKC 17/M02 A3017
KTIX 111847Z VRB05KT 7SM SKC 17/M02 A3019
KTIX 111647Z 34007KT 7SM SKC 15/M02 A3026
KTIX 111547Z 34007KT 7SM SKC 14/M02 A3029
KTIX 111447Z 33009KT 7SM SKC 12/00 A3030
KTIX 111347Z 31005KT 7SM SKC 08/04 A3030
KTIX 111247Z 31005KT 7SM SKC 03/02 A3030
KTIX 111147Z 31005KT 7SM SKC 02/01 A3029 RMK FIRST
KTIX 110147Z 31005KT 7SM SKC 06/04 A3031 RMK LAST
KTIX 110047Z 31005KT 7SM SKC 06/04 A3028
KTIX 102347Z 31005KT 7SM SKC 06/04 A3028
KTIX 102247Z 30005KT 7SM SKC 11/00 A3027
KTIX 102147Z 28010KT 7SM SKC 14/00 A3026
KTIX 102047Z 32005KT 7SM SKC 15/M03 A3025
KTIX 101947Z 32005KT 7SM SKC 15/M03 A3025
KTIX 101855Z 33008KT 7SM SKC 15/M03 A3025
KTIX 101755Z 34008KT 7SM SKC 134M02 A3027
KTIX 101647Z 34010KT 7SM SKC 13/M02 A3030
KTIX 101555Z 32012KT 7SM SKC 12/M02 A3033
KTIX 101455Z 33013KT 7SM SKC 10/M01 A3033
KTIX 101347Z 33013KT 7SM SKC 08/00 A3031
KTIX 101247Z 33015KT 7SM SKC 06/M01 A3029
KTIX 101150Z 32013KT 7SM SKC 06/M01 A3027 RMK FIRST
KTIX 100147Z 31010KT 7SM SKC 09/06 A3012 RMK LAST
KTIX 100047Z 30010KT 7SM SKC 11/06 A3009
KTIX 092347Z 29010KT 7SM SKC 12/07 A3007
KTIX 092255Z 28013G18KT 7SM FEW021 12/07 A3004
KTIX 092155Z 30013G19KT 7SM BKN021 13/08 A3003
KTIX 092047Z 31013G19KT 7SM BKN022 13/9 A3000
KTIX 091947Z 31013G19KT 7SM BKN022 15/9 A2998
KTIX 091847Z 31013KT 7SM SCT018 BKN033 16/10 A2994
KTIX 091747Z 30013KT 7SM SCT016 BKN033 OVC050 14/11 A2999
KTIX 091647Z 28014G22KT 7SM OVC012 13/13 A3000
KTIX 091547Z 32009G17KT 7SM OVC009 13/12 A2999
KTIX 091447Z 32009KT 7SM OVC009 13/12 A2994
KTIX 091355Z 32011KT 5SM -RA OVC007 14/13 A2994
KTIX 091257Z 29012KT 5SM BR OVC007 15/14 A2988
KTIX 091158Z 30012KT 5SM BR OVC007 18/17 A2983 RMK FIRST
KTIX 090147Z 19013KT 7SM SCT070 BKN100 26/21 A2981 RMK LAST
KTIX 090050Z 18012KT 7SM BKN100 26/22 A2980
KTIX 082350Z 17010KT 7SM FEW030 BKN080 27/22 A2979
KTIX 082249Z 17010KT 7SM FEW030 BKN120 27/19 A2977
KTIX 082155Z 19009KT 7SM SCT030 BKN120 27/19 A2977
KTIX 082047Z 20006KT 7SM BKN46 28/19 A2977
KTIX 081947Z 22007G15KT 7SM BKN42 29/19 A2978
KTIX 081847Z 21008KT 7SM BKN027 BKN033 28/20 A2981
KTIX 081747Z 21008KT 7SM BKN027 BKN032 28/21 A2983
KTIX 081647Z 21008KT 7SM BKN013 27/21 A2987
KTIX 081555Z 00000KT 5SM HZ OVC005 22/21 A2990
KTIX 081447Z 00000KT 7SM OVC005 21/20 A2991
KTIX 081355Z 00000KT 5SM HZ OVC007 20/19 A3001
KTIX 081250Z 32005KT 6SM HZ SCT007 BKN012 18/17 A3001
KTIX 080150Z 36005KT 7SM SKC 20/19 A2998 RMK LAST
KTIX 080047Z 36005KT 7SM SKC 20/19 A2998
KTIX 072348Z 02008KT 7SM BKN013 SBKN85 21/20 A2997
KTIX 072247Z 36008KT 7SM FEW013 SCT085 22/20 A2996
KTIX 072147Z 02008KT 7SM SCT013 BKN050 23/19 A2996
KTIX 072050Z 03008KT 7SM SCT013 BKN050 23/20 A2997
KTIX 071847Z 02010KT 7SM BKN011 22/21 A2999
KTIX 071747Z 01008KT 7SM OVC009 22/21 A3001
KTIX 071647Z 04005KT 7SM OVC009 22/21 A3003
KTIX 071547Z 00000KT 7SM OVC007 22/21 A3005
KTIX 071447Z 00000KT 4SM BR OVC003 20/19 A3008
KTIX 071347Z 00000KT 1SM BR OVC003 19/18 A3007
KTIX 071247Z 00000KT 1/4SM FG OVC001 19/18 A3004
KTIX 071147Z 00000KT 1/4SM FG OVC001 18/17 A3004
KTIX 062358Z 13005KT 7SM SKC 23/22 A3005
KTIX 062247Z 13005KT 7SM SKC 24/20 A3004
KTIX 062152Z 21008KT 7SM FEW050 28/16 A3004
KTIX 062047Z 21008KT 7SM SCT050 29/17 A3003
KTIX 061947Z 22009KT 7SM SCT045 BKN060 29/17 A3004
KTIX 061847Z 22010KT 7SM SCT035 29/17 A3005
KTIX 061747Z 2008KT 7SM SCT037 28/18 A3007
KTIX 061650Z 19010KT 7SM SCT025 28/18 A3009
KTIX 061547Z 19009KT 7SM FEW015 27/19 A3012
KTIX 061447Z 22008KT 7SM SKC 25/21 A3014
KTIX 061347Z 00000KT 7SM SKC 22/21 A3013
KTIX 061247Z 00000KT 7SM SKC 18/17 A3012
KTIX 061147Z 00000KT 7SM SKC 18/17 A3012 RMK MIFG
KTIX 060147Z 11006KT 7SM OVC070 23/22 A3015 RMK LAST
KTIX 060047Z 11006KT 7SM OVC070 23/22 A3015
KTIX 052347Z 11006KT 7SM OVC070 24/22 A3015
KTIX 052247Z 12008KT 7SM SKC 24/20 A3014
KTIX 052155Z 12008KT 7SM SKC 26/19 A3014
KTIX 052047Z 12010KT 7SM SKC 28/18 A3013
KTIX 051947Z 12010KT 7SM FEW085 28/18 A3014
KTIX 051850Z 13010KT 7SM SCT085 27/18 A3016
KTIX 051647Z 16010KT 7SM BKN070 27/18 A3022
KTIX 051547Z VRB04KT 7SM BKN070 27/19 A3023
KTIX 051447Z VRB04KT 7SM BKN070 24/22 A3024
KTIX 051347Z 09006KT 7SM SCT070 21/20 A3021
KTIX 051247Z 09006KT 7SM SCT070 18/17 A3021
KTIX 051147Z 09006KT 7SM SCT070 17/16 A3020 RMK FIRST
KTIX 050147Z 00000KT 7SM SCT070 21/20 A3021 RMK LAST
KTIX 050047Z 05005KT 7SM SCT050 22/21 A3020
KTIX 042347Z 05005KT 7SM BKN050 22/21 A3017
KTIX 042247Z 06005KT 7SM BKN035 23/18 A3017
KTIX 042147Z 06005KT 7SM SCT070 BKN120 24/17 A3017
KTIX 042050Z 08012KT 7SM SCT035 BKN120 26/16 A3017
KTIX 041950Z 07012KT 7SM SCT050 BKN120 26/16 A3017
KTIX 041850Z 08012KT 7SM SCT050 BKN120 26/16 A3017
KTIX 041750Z 08012KT 7SM BKN039 27/16 A3018
KTIX 041650Z 08012KT 7SM BKN036 27/16 A3020
KTIX 041550Z 09012KT 7SM SCT036 26/17 A3022
KTIX 041450Z 36006KT 7SM BKN038 25/18 A3022
KTIX 041350Z 36006KT 7SM BKN038 23/21 A3020
KTIX 041250Z 36006KT 7SM BKN050 22/21 A3018
KTIX 041150Z 36006KT 7SM BKN050 21/20 A3017 RMK FIRST
KTIX 031850Z 08006KT 7SM SCT065 27/16 A3009
KTIX 031750Z 04005KT 7SM FEW035 26/16 A3011
KTIX 031655Z 04005KT 7SM FEW035 26/15 A3013
KTIX 031555Z 31005KT 7SM SCT065 25/16 A3015
KTIX 031455Z 33005KT 7SM SCT065 23/17 A3017
KTIX 031352Z 00000KT 7SM SKC 20/19 A3016
KTIX 031255Z 00000KT 7SM SKC 17/17 A3015
KTIX 031153Z 00000KT 6SM BR MIFG SKC 17/16 A3014 RMK FIRST
KTIX 030147Z 00000KT 7SM SKC 18/18 A3014 RMK LAST
KTIX 030050Z 00000KT 7SM SKC 18/18 A3014
KTIX 022350Z 08005KT 7SM SKC 21/20 A3012
KTIX 022150Z 08007KT 7SM SCT080 24/18 A3010
KTIX 022047Z 11005KT 7SM SCT035 SCT065 BKN090 26/18 A3010
KTIX 021947Z 11005KT 7SM SCT030 27/17 A3010
KTIX 021847Z 09005KT 7SM SCT030 26/16 A3012
KTIX 021647Z 00000KT 7SM SCT030 26/17 A3016
KTIX 021547Z VRB04KT 7SM SCT040 26/17 A3018
KTIX 021447Z 00000KT 7SM SKC 25/18 A3019
KTIX 021355Z 00000KT 7SM SKC 22/21 A3017
KTIX 021255Z 34004KT 7SM SKC 18/17 A3017
KTIX 021155Z 02004KT 7SM SKC 17/16 A3015 RMK MIFG FIRST
KTIX 020147Z 00000KT 7SM SKC 19/18 A3014 RMK LAST
KTIX 020050Z 00000KT 7SM SKC 21/19 A3014
KTIX 012350Z 010006KT 7SM SKC 22/19 A3012
KTIX 012247Z 34006KT 7SM SKC 23/18 A3010
KTIX 012147Z 02010KT 7SM SKC 25/17 A3009
KTIX 012047Z 05010KT 7SM FEW025 26/16 A3009
KTIX 011852Z 07014KT 7SM FEW025 27/16 A3009
KTIX 011750Z 06008KT 7SM SCT023 26/18 A3010
KTIX 011652Z 35012KT 7SM SCT023 26/18 A3013
KTIX 011458Z 02006KT 7SM SKC 24/21 A3014
KTIX 011347Z 35006KT 7SM SKC 22/21 A3014
KTIX 011247Z 35006KT 7SM SKC 18/17 A3012
KTIX 011147Z 35006KT 7SM SKC 17/16 A3010 RMK FIRST
KTIX 010147Z 35006KT 7SM SKC 19/18 A3010 RMK LAST
KTIX 010052Z 35006KT 7SM SKC 21/19 A3009
KTIX 302349Z 35006KT 7SM SKC 21/19 A3009